Time;durP1;ratioP1;P1;durP2;ratioP2;P2;SDS_P1;SDS_P2;PMS_P1;PMS_P2;Temp;Humidity;BMP_temperature;BMP_pressure;BME280_temperature;BME280_humidity;BME280_pressure;Samples;Min_cycle;Max_cycle;Signal;HPM_P1;HPM_P2
2022/05/01 00:01:35;;;;;;;2.05;1.23;;;;;;;-148.56;100.00;61375.16;5040421;28;20028;-30
2022/05/01 00:04:00;;;;;;;2.42;1.40;;;;;;;-148.56;100.00;61375.16;5042827;28;21982;-30
2022/05/01 00:06:26;;;;;;;2.50;1.35;;;;;;;-148.56;100.00;61375.16;5039990;28;20101;-30
2022/05/01 00:08:51;;;;;;;2.15;1.20;;;;;;;-148.56;100.00;61375.16;5042719;28;20045;-30
2022/05/01 00:11:17;;;;;;;1.30;1.02;;;;;;;-148.56;100.00;61375.16;5040635;28;20029;-30
2022/05/01 00:13:44;;;;;;;2.05;1.25;;;;;;;-148.56;100.00;61375.16;5043688;28;20025;-30
2022/05/01 00:16:09;;;;;;;2.42;1.40;;;;;;;-148.56;100.00;61375.16;5042809;28;20028;-30
2022/05/01 00:18:35;;;;;;;1.40;1.10;;;;;;;-148.56;100.00;61375.16;5042517;28;20533;-31
2022/05/01 00:21:00;;;;;;;2.28;1.40;;;;;;;-148.56;100.00;61375.16;5041741;28;20123;-31
2022/05/01 00:23:25;;;;;;;1.80;1.20;;;;;;;-148.56;100.00;61375.16;5044546;28;20056;-29
2022/05/01 00:25:51;;;;;;;2.00;1.30;;;;;;;-148.56;100.00;61375.16;5050180;28;20040;-30
2022/05/01 00:28:17;;;;;;;1.73;1.08;;;;;;;-148.56;100.00;61375.16;5050963;28;20076;-31
2022/05/01 00:30:43;;;;;;;1.50;1.15;;;;;;;-148.56;100.00;61375.16;5043733;28;20029;-31
2022/05/01 00:38:36;;;;;;;1.63;1.20;;;;;;;-148.56;100.00;61375.16;5032739;28;20159;-31
2022/05/01 00:41:04;;;;;;;1.77;1.20;;;;;;;-148.56;100.00;61375.16;5042378;28;20984;-30
2022/05/01 00:43:30;;;;;;;2.20;1.30;;;;;;;-148.56;100.00;61375.16;5043042;28;21989;-30
2022/05/01 00:45:56;;;;;;;1.75;1.27;;;;;;;-148.56;100.00;61375.16;5043806;28;20035;-30
2022/05/01 00:48:21;;;;;;;1.88;1.27;;;;;;;-148.56;100.00;61375.16;5043949;28;20039;-30
2022/05/01 00:50:46;;;;;;;2.05;1.08;;;;;;;-148.56;100.00;61375.16;5049363;28;20028;-33
2022/05/01 00:53:12;;;;;;;1.55;1.20;;;;;;;-148.56;100.00;61375.16;5029069;28;20712;-31
2022/05/01 00:55:37;;;;;;;1.75;1.40;;;;;;;-148.56;100.00;61375.16;5051133;28;20028;-29
2022/05/01 00:58:05;;;;;;;2.40;1.35;;;;;;;-148.56;100.00;61375.16;5034007;28;20021;-30
2022/05/01 01:00:30;;;;;;;6.55;1.25;;;;;;;-148.56;100.00;61375.16;5045823;28;20107;-30
2022/05/01 01:02:55;;;;;;;1.50;1.25;;;;;;;-148.56;100.00;61375.16;5045159;28;20557;-30
2022/05/01 01:05:21;;;;;;;2.75;1.30;;;;;;;-148.56;100.00;61375.16;5047780;28;20036;-31
2022/05/01 01:07:46;;;;;;;1.80;1.45;;;;;;;-148.56;100.00;61375.16;5049354;28;20031;-32
2022/05/01 01:10:12;;;;;;;2.72;1.40;;;;;;;-148.56;100.00;61375.16;5042553;28;20470;-30
2022/05/01 01:12:55;;;;;;;4.32;1.40;;;;;;;-148.56;100.00;61375.16;5045452;28;20021;-31
2022/05/01 01:15:22;;;;;;;2.08;1.35;;;;;;;-148.56;100.00;61375.16;5045440;28;20035;-31
2022/05/01 01:17:52;;;;;;;1.88;1.38;;;;;;;-148.56;100.00;61375.16;5039493;28;20383;-34
2022/05/01 01:20:18;;;;;;;2.00;1.23;;;;;;;-148.56;100.00;61375.16;5045310;28;20570;-31
2022/05/01 01:22:44;;;;;;;1.90;1.27;;;;;;;-148.56;100.00;61375.16;5045460;28;20028;-30
2022/05/01 01:25:10;;;;;;;2.38;1.50;;;;;;;-148.56;100.00;61375.16;5043787;28;20032;-31
2022/05/01 01:27:37;;;;;;;2.67;1.23;;;;;;;-148.56;100.00;61375.16;5051010;28;20028;-29
2022/05/01 01:32:47;;;;;;;2.03;1.23;;;;;;;-148.56;100.00;61375.16;5047879;28;20106;-30
2022/05/01 01:35:12;;;;;;;1.27;1.00;;;;;;;-148.56;100.00;61375.16;5029311;28;20632;-31
2022/05/01 01:37:38;;;;;;;2.70;1.30;;;;;;;-148.56;100.00;61375.16;5028321;28;20478;-31
2022/05/01 01:40:04;;;;;;;1.60;1.23;;;;;;;-148.56;100.00;61375.16;5024176;28;20040;-31
2022/05/01 01:42:29;;;;;;;1.52;1.30;;;;;;;-148.56;100.00;61375.16;5043736;28;20049;-32
2022/05/01 01:44:55;;;;;;;1.10;1.02;;;;;;;-148.56;100.00;61375.16;5029271;28;20082;-30
2022/05/01 01:47:21;;;;;;;1.98;1.20;;;;;;;-148.56;100.00;61375.16;5010056;28;20043;-31
2022/05/01 01:49:46;;;;;;;1.58;1.10;;;;;;;-148.56;100.00;61375.16;5047367;28;20064;-31
2022/05/01 01:52:11;;;;;;;1.45;1.10;;;;;;;-148.56;100.00;61375.16;5051621;28;20520;-30
2022/05/01 01:54:37;;;;;;;1.95;1.45;;;;;;;-148.56;100.00;61375.16;5049708;28;20029;-30
2022/05/01 01:57:03;;;;;;;2.03;1.02;;;;;;;-148.56;100.00;61375.16;5046351;28;20029;-27
2022/05/01 01:59:29;;;;;;;1.95;1.05;;;;;;;-148.56;100.00;61375.16;5050699;28;20047;-31
2022/05/01 02:01:54;;;;;;;2.28;1.30;;;;;;;-148.56;100.00;61375.16;5044550;28;20032;-30
2022/05/01 02:04:19;;;;;;;9.15;3.22;;;;;;;-148.56;100.00;61375.16;5052229;28;20048;-30
2022/05/01 02:06:45;;;;;;;4.72;2.15;;;;;;;-148.56;100.00;61375.16;5047211;28;20804;-31
2022/05/01 02:09:12;;;;;;;2.63;1.80;;;;;;;-148.56;100.00;61375.16;5051205;28;20028;-30
2022/05/01 02:11:37;;;;;;;2.80;1.52;;;;;;;-148.56;100.00;61375.16;5047740;28;20143;-30
2022/05/01 02:14:03;;;;;;;3.20;1.55;;;;;;;-148.56;100.00;61375.16;5051341;28;20089;-30
2022/05/01 02:16:29;;;;;;;1.60;1.38;;;;;;;-148.56;100.00;61375.16;5044233;28;20020;-30
2022/05/01 02:18:55;;;;;;;2.25;1.35;;;;;;;-148.56;100.00;61375.16;5042646;28;20079;-29
2022/05/01 02:21:35;;;;;;;2.90;1.40;;;;;;;-148.56;100.00;61375.16;5042363;28;20123;-30
2022/05/01 02:24:05;;;;;;;6.95;3.30;;;;;;;-148.56;100.00;61375.16;5044945;28;20086;-30
2022/05/01 02:26:31;;;;;;;4.68;3.35;;;;;;;-148.56;100.00;61375.16;5046682;28;20034;-31
2022/05/01 02:28:59;;;;;;;2.45;2.20;;;;;;;-148.56;100.00;61375.16;5043664;28;20644;-30
2022/05/01 02:31:25;;;;;;;2.28;1.58;;;;;;;-148.56;100.00;61375.16;5047759;28;20121;-30
2022/05/01 02:33:50;;;;;;;2.78;1.70;;;;;;;-148.56;100.00;61375.16;5045903;28;20779;-29
2022/05/01 02:36:16;;;;;;;2.17;1.60;;;;;;;-148.56;100.00;61375.16;5050810;28;20035;-30
2022/05/01 02:38:41;;;;;;;3.80;1.55;;;;;;;-148.56;100.00;61375.16;5049353;28;20029;-33
2022/05/01 02:41:07;;;;;;;4.00;1.48;;;;;;;-148.56;100.00;61375.16;5050563;28;20032;-31
2022/05/01 02:43:32;;;;;;;1.33;1.20;;;;;;;-148.56;100.00;61375.16;5044047;28;20082;-29
2022/05/01 02:45:58;;;;;;;1.65;1.25;;;;;;;-148.56;100.00;61375.16;5042807;28;20032;-31
2022/05/01 02:48:23;;;;;;;1.65;1.38;;;;;;;-148.56;100.00;61375.16;5052004;28;20040;-31
2022/05/01 02:50:48;;;;;;;4.03;1.35;;;;;;;-148.56;100.00;61375.16;5051920;28;20035;-29
2022/05/01 02:53:14;;;;;;;2.13;1.60;;;;;;;-148.56;100.00;61375.16;5051664;28;20028;-30
2022/05/01 02:55:39;;;;;;;1.70;1.23;;;;;;;-148.56;100.00;61375.16;5048239;28;20113;-31
2022/05/01 02:58:05;;;;;;;3.78;1.42;;;;;;;-148.56;100.00;61375.16;5054400;28;20035;-29
2022/05/01 03:00:30;;;;;;;1.23;1.10;;;;;;;-148.56;100.00;61375.16;5050553;28;22692;-31
2022/05/01 03:02:56;;;;;;;3.60;1.38;;;;;;;-148.56;100.00;61375.16;5049991;28;20079;-30
2022/05/01 03:05:24;;;;;;;1.85;1.45;;;;;;;-148.56;100.00;61375.16;5046785;28;20024;-30
2022/05/01 03:07:49;;;;;;;1.38;1.27;;;;;;;-148.56;100.00;61375.16;5047220;28;20532;-32
2022/05/01 03:10:14;;;;;;;2.05;1.35;;;;;;;-148.56;100.00;61375.16;5051587;28;20514;-30
2022/05/01 03:12:40;;;;;;;1.75;1.30;;;;;;;-148.56;100.00;61375.16;5049766;28;20082;-32
2022/05/01 03:15:06;;;;;;;2.30;1.02;;;;;;;-148.56;100.00;61375.16;5044831;28;20040;-31
2022/05/01 03:22:10;;;;;;;1.33;1.23;;;;;;;-148.56;100.00;61375.16;5045434;28;20132;-30
2022/05/01 03:23:18;;;;;;;1.10;1.00;;;;;;;-148.56;100.00;61375.16;5048963;28;20050;-31
2022/05/01 03:26:33;;;;;;;2.88;1.60;;;;;;;-148.56;100.00;61375.16;5050798;28;20625;-29
2022/05/01 03:28:59;;;;;;;1.60;1.38;;;;;;;-148.56;100.00;61375.16;5051741;28;20546;-32
2022/05/01 03:31:35;;;;;;;2.22;1.25;;;;;;;-148.56;100.00;61375.16;5043817;28;20066;-32
2022/05/01 03:34:11;;;;;;;1.40;1.30;;;;;;;-148.56;100.00;61375.16;5043216;28;20056;-31
2022/05/01 03:36:40;;;;;;;1.60;1.30;;;;;;;-148.56;100.00;61375.16;5045516;28;20051;-31
2022/05/01 03:39:06;;;;;;;1.48;1.15;;;;;;;-148.56;100.00;61375.16;5044746;28;20139;-31
2022/05/01 03:41:32;;;;;;;1.88;1.27;;;;;;;-148.56;100.00;61375.16;5049966;28;20031;-31
2022/05/01 03:43:57;;;;;;;2.13;1.30;;;;;;;-148.56;100.00;61375.16;5048783;28;20032;-30
2022/05/01 03:46:23;;;;;;;1.40;1.30;;;;;;;-148.56;100.00;61375.16;5048535;28;20044;-31
2022/05/01 03:48:53;;;;;;;1.88;1.13;;;;;;;-148.56;100.00;61375.16;5047004;28;20616;-31
2022/05/01 03:51:18;;;;;;;2.08;1.30;;;;;;;-148.56;100.00;61375.16;5047593;28;20106;-31
2022/05/01 03:53:47;;;;;;;1.20;1.00;;;;;;;-148.56;100.00;61375.16;5044992;28;20111;-32
2022/05/01 03:56:13;;;;;;;1.85;1.30;;;;;;;-148.56;100.00;61375.16;5048736;28;20032;-30
2022/05/01 03:58:38;;;;;;;1.20;1.10;;;;;;;-148.56;100.00;61375.16;5041874;28;20888;-31
2022/05/01 04:01:04;;;;;;;1.80;1.27;;;;;;;-148.56;100.00;61375.16;5040965;28;20037;-31
2022/05/01 04:03:29;;;;;;;2.72;1.00;;;;;;;-148.56;100.00;61375.16;5046777;28;20025;-31
2022/05/01 04:05:54;;;;;;;1.77;1.30;;;;;;;-148.56;100.00;61375.16;5049514;28;20082;-31
2022/05/01 04:08:20;;;;;;;1.15;1.08;;;;;;;-148.56;100.00;61375.16;5043885;28;20036;-30
2022/05/01 04:10:49;;;;;;;2.17;1.45;;;;;;;-148.56;100.00;61375.16;5041526;28;20098;-31
2022/05/01 04:13:14;;;;;;;1.40;1.30;;;;;;;-148.56;100.00;61375.16;5042501;28;20758;-32
2022/05/01 04:15:41;;;;;;;1.45;1.10;;;;;;;-148.56;100.00;61375.16;5042039;28;20028;-30
2022/05/01 04:18:08;;;;;;;2.50;1.20;;;;;;;-148.56;100.00;61375.16;5039503;28;20027;-29
2022/05/01 04:20:33;;;;;;;1.27;1.00;;;;;;;-148.56;100.00;61375.16;5043813;28;20026;-36
2022/05/01 04:22:59;;;;;;;1.75;1.20;;;;;;;-148.56;100.00;61375.16;5046691;28;20434;-32
2022/05/01 04:25:29;;;;;;;1.67;1.15;;;;;;;-148.56;100.00;61375.16;5026601;28;20116;-30
2022/05/01 04:28:11;;;;;;;1.90;1.23;;;;;;;-148.56;100.00;61375.16;5050423;28;20028;-30
2022/05/01 04:30:37;;;;;;;1.98;1.17;;;;;;;-148.56;100.00;61375.16;5033102;28;20028;-31
2022/05/01 04:33:13;;;;;;;2.25;1.45;;;;;;;-148.56;100.00;61375.16;5049560;28;20039;-28
2022/05/01 04:35:45;;;;;;;2.30;1.20;;;;;;;-148.56;100.00;61375.16;5049910;28;20093;-30
2022/05/01 04:38:14;;;;;;;1.40;1.30;;;;;;;-148.56;100.00;61375.16;5047614;28;20036;-29
2022/05/01 04:40:50;;;;;;;2.63;1.13;;;;;;;-148.56;100.00;61375.16;5049488;28;20036;-29
2022/05/01 04:43:19;;;;;;;1.17;1.00;;;;;;;-148.56;100.00;61375.16;5051673;28;20060;-29
2022/05/01 04:45:46;;;;;;;2.60;1.38;;;;;;;-148.56;100.00;61375.16;5033774;28;20028;-29
2022/05/01 04:48:12;;;;;;;1.30;1.00;;;;;;;-148.56;100.00;61375.16;5047184;28;20039;-28
2022/05/01 04:50:37;;;;;;;1.77;1.38;;;;;;;-148.56;100.00;61375.16;5048861;28;20058;-29
2022/05/01 04:53:06;;;;;;;2.83;1.30;;;;;;;-148.56;100.00;61375.16;5046888;28;20040;-29
2022/05/01 04:55:32;;;;;;;1.88;1.20;;;;;;;-148.56;100.00;61375.16;5051677;28;20028;-29
2022/05/01 04:57:57;;;;;;;2.03;1.20;;;;;;;-148.56;100.00;61375.16;5050489;28;20252;-29
2022/05/01 05:00:22;;;;;;;1.25;1.13;;;;;;;-148.56;100.00;61375.16;5044407;28;21046;-29
2022/05/01 05:02:49;;;;;;;1.30;1.20;;;;;;;-148.56;100.00;61375.16;5047588;28;20032;-30
2022/05/01 05:05:15;;;;;;;1.88;1.30;;;;;;;-148.56;100.00;61375.16;5045298;28;20020;-29
2022/05/01 05:07:40;;;;;;;1.67;1.35;;;;;;;-148.56;100.00;61375.16;5046683;28;20125;-29
2022/05/01 05:10:07;;;;;;;1.27;1.15;;;;;;;-148.56;100.00;61375.16;5048255;28;20038;-30
2022/05/01 05:12:33;;;;;;;1.23;1.08;;;;;;;-148.56;100.00;61375.16;5047472;28;20514;-30
2022/05/01 05:15:00;;;;;;;1.75;1.25;;;;;;;-148.56;100.00;61375.16;5048406;28;20119;-31
2022/05/01 05:17:26;;;;;;;2.20;1.45;;;;;;;-148.56;100.00;61375.16;5049078;28;20032;-29
2022/05/01 05:19:52;;;;;;;1.20;1.10;;;;;;;-148.56;100.00;61375.16;5048752;28;20033;-30
2022/05/01 05:22:17;;;;;;;1.98;1.45;;;;;;;-148.56;100.00;61375.16;5052187;28;20032;-29
2022/05/01 05:24:43;;;;;;;1.58;1.25;;;;;;;-148.56;100.00;61375.16;5044488;28;20056;-30
2022/05/01 05:27:08;;;;;;;2.70;1.25;;;;;;;-148.56;100.00;61375.16;5052793;28;20039;-31
2022/05/01 05:29:33;;;;;;;1.45;1.20;;;;;;;-148.56;100.00;61375.16;5052666;28;20084;-31
2022/05/01 05:31:59;;;;;;;1.85;1.40;;;;;;;-148.56;100.00;61375.16;5052420;28;20032;-31
2022/05/01 05:34:25;;;;;;;1.70;1.38;;;;;;;-148.56;100.00;61375.16;5045512;28;20087;-31
2022/05/01 05:36:50;;;;;;;2.28;1.20;;;;;;;-148.56;100.00;61375.16;5045287;28;20037;-30
2022/05/01 05:39:16;;;;;;;1.83;1.45;;;;;;;-148.56;100.00;61375.16;5040921;28;20167;-31
2022/05/01 05:41:45;;;;;;;1.80;1.23;;;;;;;-148.56;100.00;61375.16;5050495;28;20099;-33
2022/05/01 05:45:05;;;;;;;1.58;1.17;;;;;;;-148.56;100.00;61375.16;5046767;28;20025;-29
2022/05/01 05:48:07;;;;;;;2.50;1.40;;;;;;;-148.56;100.00;61375.16;5052572;28;20082;-29
2022/05/01 05:51:24;;;;;;;1.42;1.20;;;;;;;-148.56;100.00;61375.16;5046628;28;20028;-29
2022/05/01 05:54:42;;;;;;;1.33;1.23;;;;;;;-148.56;100.00;61375.16;5047182;28;20032;-30
2022/05/01 05:57:43;;;;;;;2.15;1.50;;;;;;;-148.56;100.00;61375.16;5055322;28;20036;-32
2022/05/01 06:00:31;;;;;;;1.98;1.40;;;;;;;-148.56;100.00;61375.16;5048086;28;20029;-31
2022/05/01 06:03:51;;;;;;;1.23;1.13;;;;;;;-148.56;100.00;61375.16;5049186;28;20024;-30
2022/05/01 06:06:37;;;;;;;1.83;1.48;;;;;;;-148.56;100.00;61375.16;5050242;28;20701;-29
2022/05/01 06:09:56;;;;;;;2.63;1.08;;;;;;;-148.56;100.00;61375.16;5046036;28;20201;-30
2022/05/01 06:12:59;;;;;;;1.50;1.40;;;;;;;-148.56;100.00;61375.16;5048521;28;20057;-29
2022/05/01 06:15:33;;;;;;;1.25;1.15;;;;;;;-148.56;100.00;61375.16;5048440;28;20037;-28
2022/05/01 06:18:08;;;;;;;3.00;1.25;;;;;;;-148.56;100.00;61375.16;5043197;28;20028;-29
2022/05/01 06:21:08;;;;;;;1.50;1.35;;;;;;;-148.56;100.00;61375.16;5041945;28;20033;-30
2022/05/01 06:23:54;;;;;;;2.28;1.75;;;;;;;-148.56;100.00;61375.16;5031079;28;20275;-31
2022/05/01 06:26:39;;;;;;;3.45;1.90;;;;;;;-148.56;100.00;61375.16;5046046;28;20036;-31
2022/05/01 06:29:42;;;;;;;2.42;1.90;;;;;;;-148.56;100.00;61375.16;5047611;28;20044;-32
2022/05/01 06:32:33;;;;;;;3.60;2.08;;;;;;;-148.56;100.00;61375.16;5051457;28;20103;-30
2022/05/01 06:35:16;;;;;;;5.00;2.30;;;;;;;-148.56;100.00;61375.16;5038714;28;20028;-32
2022/05/01 06:37:42;;;;;;;6.95;2.38;;;;;;;-148.56;100.00;61375.16;5039255;28;20028;-32
2022/05/01 06:40:08;;;;;;;3.90;2.40;;;;;;;-148.56;100.00;61375.16;5040162;28;20284;-32
2022/05/01 06:42:34;;;;;;;7.82;2.40;;;;;;;-148.56;100.00;61375.16;5038817;28;20021;-30
2022/05/01 06:45:02;;;;;;;7.57;2.13;;;;;;;-148.56;100.00;61375.16;5022446;28;20032;-30
2022/05/01 06:47:27;;;;;;;8.27;2.30;;;;;;;-148.56;100.00;61375.16;5028163;28;20053;-31
2022/05/01 06:49:53;;;;;;;4.22;2.13;;;;;;;-148.56;100.00;61375.16;5035946;28;20028;-31
2022/05/01 06:52:23;;;;;;;7.90;2.42;;;;;;;-148.56;100.00;61375.16;5041202;28;20091;-31
2022/05/01 06:54:55;;;;;;;5.65;2.63;;;;;;;-148.56;100.00;61375.16;5039333;28;20039;-31
2022/05/01 06:57:20;;;;;;;4.45;2.28;;;;;;;-148.56;100.00;61375.16;5043235;28;20036;-31
2022/05/01 06:59:46;;;;;;;6.85;2.95;;;;;;;-148.56;100.00;61375.16;5042622;28;20502;-31
2022/05/01 07:02:20;;;;;;;4.10;2.45;;;;;;;-148.56;100.00;61375.16;5042282;28;20413;-31
2022/05/01 07:04:49;;;;;;;6.63;2.83;;;;;;;-148.56;100.00;61375.16;5020983;28;20069;-35
2022/05/01 07:07:14;;;;;;;7.53;2.40;;;;;;;-148.56;100.00;61375.16;5041210;28;20033;-31
2022/05/01 07:09:39;;;;;;;3.50;2.22;;;;;;;-148.56;100.00;61375.16;5044523;28;20032;-32
2022/05/01 07:12:06;;;;;;;11.18;2.90;;;;;;;-148.56;100.00;61375.16;5047338;28;20024;-30
2022/05/01 07:14:32;;;;;;;5.72;2.80;;;;;;;-148.56;100.00;61375.16;5044125;28;20491;-31
2022/05/01 07:16:57;;;;;;;6.20;3.53;;;;;;;-148.56;100.00;61375.16;5038740;28;20475;-31
2022/05/01 07:19:22;;;;;;;8.23;3.28;;;;;;;-148.56;100.00;61375.16;5041192;28;20036;-31
2022/05/01 07:21:48;;;;;;;6.28;3.20;;;;;;;-148.56;100.00;61375.16;5041593;28;20025;-30
2022/05/01 07:24:13;;;;;;;6.47;3.17;;;;;;;-148.56;100.00;61375.16;5038575;28;21268;-31
2022/05/01 07:26:39;;;;;;;5.30;3.00;;;;;;;-148.56;100.00;61375.16;5038481;28;20081;-31
2022/05/01 07:29:21;;;;;;;6.63;3.65;;;;;;;-148.56;100.00;61375.16;5040251;28;20032;-32
2022/05/01 07:31:47;;;;;;;7.82;3.70;;;;;;;-148.56;100.00;61375.16;5041032;28;20246;-31
2022/05/01 07:34:27;;;;;;;6.72;3.10;;;;;;;-148.56;100.00;61375.16;5041021;28;20027;-30
2022/05/01 07:36:57;;;;;;;10.10;3.08;;;;;;;-148.56;100.00;61375.16;5032274;28;20534;-31
2022/05/01 07:39:22;;;;;;;8.00;2.80;;;;;;;-148.56;100.00;61375.16;5038309;28;20040;-30
2022/05/01 07:41:54;;;;;;;5.25;2.88;;;;;;;-148.56;100.00;61375.16;5042690;28;20086;-31
2022/05/01 07:44:19;;;;;;;8.95;3.20;;;;;;;-148.56;100.00;61375.16;5040560;28;20033;-31
2022/05/01 07:46:47;;;;;;;6.68;3.00;;;;;;;-148.56;100.00;61375.16;5039807;28;20036;-31
2022/05/01 07:49:12;;;;;;;6.88;3.17;;;;;;;-148.56;100.00;61375.16;5035587;28;20043;-30
2022/05/01 07:51:37;;;;;;;8.55;3.20;;;;;;;-148.56;100.00;61375.16;5040943;28;20064;-31
2022/05/01 07:54:06;;;;;;;5.85;2.60;;;;;;;-148.56;100.00;61375.16;5037078;28;20033;-30
2022/05/01 07:56:33;;;;;;;5.32;2.85;;;;;;;-148.56;100.00;61375.16;5041720;28;20147;-31
2022/05/01 07:58:58;;;;;;;5.68;2.55;;;;;;;-148.56;100.00;61375.16;5042075;28;20024;-30
2022/05/01 08:01:26;;;;;;;5.25;2.53;;;;;;;-148.56;100.00;61375.16;5043208;28;20028;-31
2022/05/01 08:06:36;;;;;;;6.90;2.78;;;;;;;-148.56;100.00;61375.16;5037512;28;20089;-32
2022/05/01 08:09:03;;;;;;;6.45;2.60;;;;;;;-148.56;100.00;61375.16;5041013;28;20051;-32
2022/05/01 08:11:28;;;;;;;6.30;2.88;;;;;;;-148.56;100.00;61375.16;5040876;28;20041;-31
2022/05/01 08:13:54;;;;;;;4.93;2.50;;;;;;;-148.56;100.00;61375.16;5040900;28;20029;-31
2022/05/01 08:16:20;;;;;;;4.50;2.53;;;;;;;-148.56;100.00;61375.16;5040824;28;21422;-30
2022/05/01 08:21:35;;;;;;;4.70;2.47;;;;;;;-148.56;100.00;61375.16;5045996;28;20039;-30
2022/05/01 08:24:01;;;;;;;4.82;2.50;;;;;;;-148.56;100.00;61375.16;5035461;28;20067;-30
2022/05/01 08:26:26;;;;;;;5.25;2.35;;;;;;;-148.56;100.00;61375.16;5032980;28;20867;-31
2022/05/01 08:29:24;;;;;;;28.65;4.13;;;;;;;-148.56;100.00;61375.16;5044934;28;20037;-31
2022/05/01 08:32:20;;;;;;;8.80;3.03;;;;;;;-148.56;100.00;61375.16;5041042;28;20063;-33
2022/05/01 08:34:53;;;;;;;13.25;8.13;;;;;;;-148.56;100.00;61375.16;5041128;28;20075;-31
2022/05/01 08:37:42;;;;;;;10.93;9.10;;;;;;;-148.56;100.00;61375.16;5042970;28;20028;-31
2022/05/01 08:40:19;;;;;;;10.35;9.23;;;;;;;-148.56;100.00;61375.16;5044077;28;20574;-32
2022/05/01 08:42:53;;;;;;;11.40;9.52;;;;;;;-148.56;100.00;61375.16;5047836;28;20040;-33
2022/05/01 08:45:24;;;;;;;10.15;9.13;;;;;;;-148.56;100.00;61375.16;5049630;28;20152;-32
2022/05/01 08:47:54;;;;;;;11.55;9.10;;;;;;;-148.56;100.00;61375.16;5051748;28;20118;-30
2022/05/01 08:50:22;;;;;;;12.20;10.05;;;;;;;-148.56;100.00;61375.16;5044306;28;20155;-32
2022/05/01 08:52:48;;;;;;;12.60;8.75;;;;;;;-148.56;100.00;61375.16;5002871;28;20037;-31
2022/05/01 08:55:15;;;;;;;13.82;7.25;;;;;;;-148.56;100.00;61375.16;5024522;28;20032;-31
2022/05/01 08:57:40;;;;;;;8.13;6.15;;;;;;;-148.56;100.00;61375.16;5008114;28;20056;-32
2022/05/01 09:00:07;;;;;;;7.97;6.15;;;;;;;-148.56;100.00;61375.16;5013804;28;22396;-31
2022/05/01 09:02:33;;;;;;;7.50;5.00;;;;;;;-148.56;100.00;61375.16;5033738;28;20115;-29
2022/05/01 09:04:59;;;;;;;6.43;4.78;;;;;;;-148.56;100.00;61375.16;5024482;28;20070;-30
2022/05/01 09:07:24;;;;;;;12.23;4.65;;;;;;;-148.56;100.00;61375.16;5045286;28;20024;-30
2022/05/01 09:09:51;;;;;;;5.30;4.30;;;;;;;-148.56;100.00;61375.16;5038083;28;20029;-29
2022/05/01 09:15:01;;;;;;;11.45;4.53;;;;;;;-148.56;100.00;61375.16;5044316;28;20067;-31
2022/05/01 09:17:26;;;;;;;8.07;5.03;;;;;;;-148.56;100.00;61375.16;5026600;28;20024;-30
2022/05/01 09:19:56;;;;;;;6.40;4.05;;;;;;;-148.56;100.00;61375.16;5040670;28;20402;-30
2022/05/01 09:22:21;;;;;;;5.28;4.00;;;;;;;-148.56;100.00;61375.16;5039318;28;20036;-29
2022/05/01 09:24:52;;;;;;;6.03;4.03;;;;;;;-148.56;100.00;61375.16;5047244;28;20109;-29
2022/05/01 09:27:32;;;;;;;9.52;3.78;;;;;;;-148.56;100.00;61375.16;5044027;28;20036;-31
2022/05/01 09:30:20;;;;;;;5.97;3.72;;;;;;;-148.56;100.00;61375.16;5047226;28;20086;-31
2022/05/01 09:32:46;;;;;;;4.20;3.17;;;;;;;-148.56;100.00;61375.16;5041138;28;20037;-31
2022/05/01 09:35:29;;;;;;;12.60;3.50;;;;;;;-148.56;100.00;61375.16;5047664;28;20078;-30
2022/05/01 09:38:24;;;;;;;15.88;4.32;;;;;;;-148.56;100.00;61375.16;5033353;28;20044;-31
2022/05/01 09:40:51;;;;;;;23.40;5.00;;;;;;;-148.56;100.00;61375.16;5042093;28;20047;-30
2022/05/01 09:43:37;;;;;;;16.50;5.15;;;;;;;-148.56;100.00;61375.16;5025912;28;20159;-30
2022/05/01 09:46:35;;;;;;;12.23;4.85;;;;;;;-148.56;100.00;61375.16;5045127;28;20028;-38
2022/05/01 09:49:05;;;;;;;11.20;4.40;;;;;;;-148.56;100.00;61375.16;5015065;28;20044;-29
2022/05/01 09:51:32;;;;;;;14.20;4.63;;;;;;;-148.56;100.00;61375.16;5048742;28;20701;-30
2022/05/01 09:54:01;;;;;;;10.77;4.38;;;;;;;-148.56;100.00;61375.16;5034827;28;20028;-31
2022/05/01 09:56:27;;;;;;;9.75;4.30;;;;;;;-148.56;100.00;61375.16;5044170;28;20033;-32
2022/05/01 09:59:02;;;;;;;11.35;4.13;;;;;;;-148.56;100.00;61375.16;5040233;28;20040;-32
2022/05/01 10:01:28;;;;;;;11.07;4.13;;;;;;;-148.56;100.00;61375.16;5048969;28;20099;-30
2022/05/01 10:04:00;;;;;;;8.65;3.90;;;;;;;-148.56;100.00;61375.16;5049596;28;20964;-31
2022/05/01 10:06:25;;;;;;;9.20;4.28;;;;;;;-148.56;100.00;61375.16;5051649;28;20064;-30
2022/05/01 10:08:51;;;;;;;5.93;3.60;;;;;;;-148.56;100.00;61375.16;5016119;28;20904;-31
2022/05/01 10:11:17;;;;;;;9.73;3.63;;;;;;;-148.56;100.00;61375.16;5020588;28;20109;-30
2022/05/01 10:13:46;;;;;;;8.23;3.72;;;;;;;-148.56;100.00;61375.16;5043292;28;20506;-30
2022/05/01 10:16:15;;;;;;;7.72;3.70;;;;;;;-148.56;100.00;61375.16;5054795;28;20063;-31
2022/05/01 10:18:52;;;;;;;8.00;3.60;;;;;;;-148.56;100.00;61375.16;5051925;28;20067;-31
2022/05/01 10:21:17;;;;;;;7.57;3.40;;;;;;;-148.56;100.00;61375.16;5055267;28;20029;-31
2022/05/01 10:23:44;;;;;;;7.30;3.45;;;;;;;-148.56;100.00;61375.16;5038039;28;20043;-29
2022/05/01 10:26:48;;;;;;;5.40;3.22;;;;;;;-148.56;100.00;61375.16;5015206;28;20033;-29
2022/05/01 10:29:36;;;;;;;6.75;3.45;;;;;;;-148.56;100.00;61375.16;4970441;28;20220;-30
2022/05/01 10:32:21;;;;;;;10.85;3.95;;;;;;;-148.56;100.00;61375.16;5048849;28;20065;-32
2022/05/01 10:35:10;;;;;;;6.70;3.55;;;;;;;-148.56;100.00;61375.16;5053553;28;20864;-31
2022/05/01 10:38:23;;;;;;;8.13;3.53;;;;;;;-148.56;100.00;61375.16;5035140;28;20115;-31
2022/05/01 10:40:55;;;;;;;6.70;2.90;;;;;;;-148.56;100.00;61375.16;5032921;28;20111;-30
2022/05/01 10:43:36;;;;;;;7.57;3.20;;;;;;;-148.56;100.00;61375.16;5051692;28;20028;-30
2022/05/01 10:46:20;;;;;;;6.80;3.60;;;;;;;-148.56;100.00;61375.16;5055399;28;20039;-30
2022/05/01 10:48:49;;;;;;;8.70;3.30;;;;;;;-148.56;100.00;61375.16;5058748;28;20033;-31
2022/05/01 10:51:47;;;;;;;7.57;3.20;;;;;;;-148.56;100.00;61375.16;5038838;28;20048;-30
2022/05/01 10:54:19;;;;;;;7.20;3.25;;;;;;;-148.56;100.00;61375.16;5056940;28;20035;-30
2022/05/01 10:57:05;;;;;;;6.68;2.95;;;;;;;-148.56;100.00;61375.16;5050828;28;20107;-31
2022/05/01 10:59:38;;;;;;;5.40;2.72;;;;;;;-148.56;100.00;61375.16;5049906;28;20125;-30
2022/05/01 11:02:22;;;;;;;7.75;3.00;;;;;;;-148.56;100.00;61375.16;5051081;28;20035;-31
2022/05/01 11:04:48;;;;;;;6.65;3.28;;;;;;;-148.56;100.00;61375.16;5053222;28;20124;-29
2022/05/01 11:07:14;;;;;;;6.20;3.28;;;;;;;-148.56;100.00;61375.16;5037143;28;20025;-30
2022/05/01 11:09:46;;;;;;;5.88;2.92;;;;;;;-148.56;100.00;61375.16;5050463;28;20067;-30
2022/05/01 11:12:24;;;;;;;6.63;2.60;;;;;;;-148.56;100.00;61375.16;5053415;28;20715;-32
2022/05/01 11:15:45;;;;;;;4.97;2.85;;;;;;;-148.56;100.00;61375.16;5054229;28;20677;-31
2022/05/01 11:18:59;;;;;;;5.68;2.58;;;;;;;-148.56;100.00;61375.16;5051096;28;20036;-31
2022/05/01 11:22:09;;;;;;;4.75;2.95;;;;;;;-148.56;100.00;61375.16;5045200;28;20120;-31
2022/05/01 11:25:39;;;;;;;4.70;2.95;;;;;;;-148.56;100.00;61375.16;5046825;28;20484;-32
2022/05/01 11:28:56;;;;;;;2.75;2.45;;;;;;;-148.56;100.00;61375.16;5051099;28;20151;-30
2022/05/01 11:31:47;;;;;;;4.85;2.90;;;;;;;-148.56;100.00;61375.16;5053024;28;20127;-30
2022/05/01 11:34:30;;;;;;;4.63;2.72;;;;;;;-148.56;100.00;61375.16;5054546;28;20082;-30
2022/05/01 11:37:13;;;;;;;4.45;2.63;;;;;;;-148.56;100.00;61375.16;5047477;28;20024;-30
2022/05/01 11:40:02;;;;;;;4.43;2.63;;;;;;;-148.56;100.00;61375.16;5051812;28;20020;-30
2022/05/01 11:42:35;;;;;;;6.07;2.60;;;;;;;-148.56;100.00;61375.16;5033027;28;20724;-29
2022/05/01 11:45:01;;;;;;;5.53;2.60;;;;;;;-148.56;100.00;61375.16;5032409;28;20918;-31
2022/05/01 11:47:36;;;;;;;5.55;2.50;;;;;;;-148.56;100.00;61375.16;5052347;28;20082;-29
2022/05/01 11:50:40;;;;;;;4.63;2.67;;;;;;;-148.56;100.00;61375.16;5050577;28;20094;-30
2022/05/01 11:53:18;;;;;;;3.60;2.45;;;;;;;-148.56;100.00;61375.16;5047202;28;20029;-30